Time,TemperatureF,DewpointF,PressureIn,WindDirection,WindDirectionDegrees,WindSpeedMPH,WindSpeedGustMPH,Humidity,HourlyPrecipIn,Conditions,Clouds,dailyrainin,SoftwareType,DateUTC
2013-11-10 00:03:00,48.7,40.0,30.09,South,182,1.0,3.0,72,0.00,,,0.00,weatherlink.com 1.10,2013-11-10 05:03:00,
2013-11-10 00:18:00,49.1,40.0,30.08,SW,234,1.0,9.0,71,0.00,,,0.00,weatherlink.com 1.10,2013-11-10 05:18:00,
2013-11-10 00:33:00,49.8,40.0,30.07,South,191,0.0,3.0,69,0.00,,,0.00,weatherlink.com 1.10,2013-11-10 05:33:00,
2013-11-10 00:48:00,50.1,40.0,30.06,West,260,1.0,7.0,69,0.00,,,0.00,weatherlink.com 1.10,2013-11-10 05:48:00,
2013-11-10 01:03:00,50.6,41.0,30.06,West,261,3.0,8.0,69,0.00,,,0.00,weatherlink.com 1.10,2013-11-10 06:03:00,
2013-11-10 01:18:00,50.9,41.0,30.05,West,259,0.0,8.0,68,0.00,,,0.00,weatherlink.com 1.10,2013-11-10 06:18:00,
2013-11-10 01:33:00,50.9,41.0,30.04,SW,223,0.0,3.0,68,0.00,,,0.00,weatherlink.com 1.10,2013-11-10 06:33:00,
2013-11-10 01:48:00,50.8,41.0,30.03,WSW,255,2.0,3.0,69,0.00,,,0.00,weatherlink.com 1.10,2013-11-10 06:48:00,
2013-11-10 02:03:00,50.8,41.0,30.02,South,181,0.0,3.0,70,0.00,,,0.00,weatherlink.com 1.10,2013-11-10 07:03:00,
2013-11-10 02:18:00,51.0,42.0,30.01,South,170,0.0,3.0,71,0.00,,,0.00,weatherlink.com 1.10,2013-11-10 07:18:00,
2013-11-10 02:33:00,51.0,42.0,30.00,West,262,1.0,5.0,72,0.00,,,0.00,weatherlink.com 1.10,2013-11-10 07:33:00,
2013-11-10 02:48:00,51.1,40.0,30.00,North,1,1.0,8.0,67,0.00,,,0.00,weatherlink.com 1.10,2013-11-10 07:48:00,
2013-11-10 03:03:00,50.9,39.0,29.99,SW,224,0.0,6.0,64,0.00,,,0.00,weatherlink.com 1.10,2013-11-10 08:03:00,
2013-11-10 03:19:00,50.3,39.0,29.99,WSW,254,0.0,3.0,65,0.00,,,0.00,weatherlink.com 1.10,2013-11-10 08:19:00,
2013-11-10 03:34:00,50.0,39.0,29.98,WSW,256,0.0,4.0,67,0.00,,,0.00,weatherlink.com 1.10,2013-11-10 08:34:00,
2013-11-10 03:49:00,50.0,40.0,29.97,South,183,2.0,2.0,69,0.00,,,0.00,weatherlink.com 1.10,2013-11-10 08:49:00,
2013-11-10 04:04:00,50.6,41.0,29.97,NW,305,2.0,6.0,70,0.00,,,0.00,weatherlink.com 1.10,2013-11-10 09:04:00,
2013-11-10 04:19:00,51.5,41.0,29.96,SW,236,0.0,3.0,68,0.00,,,0.00,weatherlink.com 1.10,2013-11-10 09:19:00,
2013-11-10 04:34:00,52.5,42.0,29.95,West,262,3.0,7.0,68,0.00,,,0.00,weatherlink.com 1.10,2013-11-10 09:34:00,
2013-11-10 04:49:00,52.9,43.0,29.95,West,279,3.0,7.0,70,0.00,,,0.00,weatherlink.com 1.10,2013-11-10 09:49:00,
2013-11-10 05:04:00,53.3,44.0,29.94,WSW,239,3.0,5.0,70,0.00,,,0.00,weatherlink.com 1.10,2013-11-10 10:04:00,
2013-11-10 05:19:00,53.3,44.0,29.93,SSE,156,2.0,4.0,71,0.00,,,0.00,weatherlink.com 1.10,2013-11-10 10:19:00,
2013-11-10 05:34:00,53.7,45.0,29.93,WSW,238,1.0,4.0,73,0.00,,,0.00,weatherlink.com 1.10,2013-11-10 10:34:00,
2013-11-10 05:49:00,54.3,45.0,29.93,SW,234,3.0,8.0,72,0.00,,,0.00,weatherlink.com 1.10,2013-11-10 10:49:00,
2013-11-10 06:04:00,54.6,46.0,29.92,SE,146,3.0,7.0,74,0.00,,,0.00,weatherlink.com 1.10,2013-11-10 11:04:00,
2013-11-10 06:19:00,54.8,46.0,29.92,WSW,248,1.0,12.0,73,0.00,,,0.00,weatherlink.com 1.10,2013-11-10 11:19:00,
2013-11-10 06:34:00,54.7,46.0,29.92,SW,214,1.0,10.0,72,0.00,,,0.00,weatherlink.com 1.10,2013-11-10 11:34:00,
2013-11-10 06:49:00,54.9,45.0,29.92,SSW,203,2.0,10.0,70,0.00,,,0.00,weatherlink.com 1.10,2013-11-10 11:49:00,
2013-11-10 07:04:00,55.0,45.0,29.92,West,274,4.0,10.0,69,0.00,,,0.00,weatherlink.com 1.10,2013-11-10 12:04:00,
2013-11-10 07:19:00,54.9,44.0,29.92,North,360,3.0,9.0,68,0.00,,,0.00,weatherlink.com 1.10,2013-11-10 12:19:00,
2013-11-10 07:34:00,55.0,45.0,29.91,WSW,251,1.0,7.0,68,0.00,,,0.00,weatherlink.com 1.10,2013-11-10 12:34:00,
2013-11-10 07:49:00,55.4,46.0,29.91,SSW,198,3.0,7.0,70,0.00,,,0.00,weatherlink.com 1.10,2013-11-10 12:49:00,
2013-11-10 08:04:00,55.6,46.0,29.90,West,269,9.0,11.0,70,0.00,,,0.00,weatherlink.com 1.10,2013-11-10 13:04:00,
2013-11-10 08:19:00,56.6,46.0,29.90,West,265,2.0,5.0,68,0.00,,,0.00,weatherlink.com 1.10,2013-11-10 13:19:00,
2013-11-10 08:34:00,56.5,46.0,29.89,WNW,299,7.0,10.0,67,0.00,,,0.00,weatherlink.com 1.10,2013-11-10 13:34:00,
2013-11-10 08:49:00,56.6,46.0,29.89,SW,219,5.0,11.0,67,0.00,,,0.00,weatherlink.com 1.10,2013-11-10 13:49:00,
2013-11-10 09:05:00,56.7,46.0,29.89,West,264,7.0,11.0,68,0.00,,,0.00,weatherlink.com 1.10,2013-11-10 14:05:00,
2013-11-10 09:20:00,56.4,46.0,29.88,WNW,283,3.0,10.0,69,0.00,,,0.00,weatherlink.com 1.10,2013-11-10 14:20:00,
2013-11-10 09:35:00,57.5,47.0,29.88,SW,227,3.0,13.0,67,0.00,,,0.00,weatherlink.com 1.10,2013-11-10 14:35:00,
2013-11-10 09:50:00,57.7,46.0,29.87,SSW,205,5.0,14.0,65,0.00,,,0.00,weatherlink.com 1.10,2013-11-10 14:50:00,
2013-11-10 10:05:00,57.3,46.0,29.87,West,276,11.0,17.0,66,0.00,,,0.00,weatherlink.com 1.10,2013-11-10 15:05:00,
2013-11-10 10:20:00,57.0,45.0,29.86,SW,230,3.0,12.0,64,0.00,,,0.00,weatherlink.com 1.10,2013-11-10 15:20:00,
2013-11-10 10:35:00,55.8,44.0,29.85,WSW,243,4.0,12.0,64,0.00,,,0.00,weatherlink.com 1.10,2013-11-10 15:35:00,
2013-11-10 10:50:00,56.5,43.0,29.84,WSW,244,7.0,13.0,62,0.00,,,0.00,weatherlink.com 1.10,2013-11-10 15:50:00,
2013-11-10 11:05:00,57.3,44.0,29.83,WNW,293,5.0,14.0,61,0.00,,,0.00,weatherlink.com 1.10,2013-11-10 16:05:00,
2013-11-10 11:20:00,57.0,43.0,29.82,North,349,3.0,15.0,59,0.00,,,0.00,weatherlink.com 1.10,2013-11-10 16:20:00,
2013-11-10 11:35:00,56.7,42.0,29.81,West,281,8.0,12.0,59,0.00,,,0.00,weatherlink.com 1.10,2013-11-10 16:35:00,
2013-11-10 11:50:00,56.7,43.0,29.80,South,174,2.0,14.0,60,0.00,,,0.00,weatherlink.com 1.10,2013-11-10 16:50:00,
2013-11-10 12:05:00,56.4,43.0,29.79,WSW,258,6.0,12.0,61,0.00,,,0.00,weatherlink.com 1.10,2013-11-10 17:05:00,
2013-11-10 12:20:00,56.3,43.0,29.79,West,273,4.0,14.0,61,0.00,,,0.00,weatherlink.com 1.10,2013-11-10 17:20:00,
2013-11-10 12:35:00,56.2,43.0,29.78,WNW,290,5.0,14.0,62,0.00,,,0.00,weatherlink.com 1.10,2013-11-10 17:35:00,
2013-11-10 12:50:00,56.4,43.0,29.78,WSW,249,3.0,10.0,62,0.00,,,0.00,weatherlink.com 1.10,2013-11-10 17:50:00,
2013-11-10 13:05:00,56.2,43.0,29.78,West,268,3.0,11.0,61,0.00,,,0.00,weatherlink.com 1.10,2013-11-10 18:05:00,
2013-11-10 13:20:00,56.0,43.0,29.78,NW,316,4.0,12.0,62,0.00,,,0.00,weatherlink.com 1.10,2013-11-10 18:20:00,
2013-11-10 13:35:00,56.2,44.0,29.78,West,278,5.0,15.0,63,0.00,,,0.00,weatherlink.com 1.10,2013-11-10 18:35:00,
2013-11-10 13:50:00,55.2,42.0,29.77,SW,233,2.0,18.0,62,0.00,,,0.00,weatherlink.com 1.10,2013-11-10 18:50:00,
2013-11-10 14:05:00,55.4,43.0,29.77,West,281,2.0,15.0,63,0.00,,,0.00,weatherlink.com 1.10,2013-11-10 19:05:00,
2013-11-10 14:20:00,56.4,44.0,29.76,West,269,2.0,11.0,63,0.00,,,0.00,weatherlink.com 1.10,2013-11-10 19:20:00,
2013-11-10 14:35:00,56.3,44.0,29.76,NW,309,2.0,14.0,64,0.00,,,0.00,weatherlink.com 1.10,2013-11-10 19:35:00,
2013-11-10 14:50:00,55.8,44.0,29.76,WSW,243,4.0,15.0,65,0.00,,,0.00,weatherlink.com 1.10,2013-11-10 19:50:00,
2013-11-10 15:05:00,55.5,44.0,29.76,WNW,282,9.0,12.0,66,0.00,,,0.00,weatherlink.com 1.10,2013-11-10 20:05:00,
2013-11-10 15:20:00,55.1,44.0,29.77,WSW,254,10.0,15.0,67,0.00,,,0.00,weatherlink.com 1.10,2013-11-10 20:20:00,
2013-11-10 15:35:00,55.1,44.0,29.76,WNW,284,2.0,13.0,67,0.00,,,0.00,weatherlink.com 1.10,2013-11-10 20:35:00,
2013-11-10 15:50:00,55.3,45.0,29.77,WNW,288,4.0,13.0,68,0.00,,,0.00,weatherlink.com 1.10,2013-11-10 20:50:00,
2013-11-10 16:05:00,52.4,43.0,29.81,NNW,330,10.0,21.0,71,0.01,,,0.01,weatherlink.com 1.10,2013-11-10 21:05:00,
2013-11-10 16:20:00,48.1,43.0,29.83,NW,314,6.0,13.0,82,0.05,,,0.05,weatherlink.com 1.10,2013-11-10 21:20:00,
2013-11-10 16:35:00,47.7,43.0,29.83,WNW,294,7.0,14.0,84,0.09,,,0.09,weatherlink.com 1.10,2013-11-10 21:35:00,
2013-11-10 16:50:00,47.1,42.0,29.84,NW,305,6.0,15.0,82,0.10,,,0.10,weatherlink.com 1.10,2013-11-10 21:50:00,
2013-11-10 17:05:00,47.2,41.0,29.84,West,261,3.0,17.0,79,0.10,,,0.11,weatherlink.com 1.10,2013-11-10 22:05:00,
2013-11-10 17:21:00,47.3,42.0,29.84,NNW,332,4.0,10.0,81,0.06,,,0.11,weatherlink.com 1.10,2013-11-10 22:21:00,
2013-11-10 17:36:00,47.3,41.0,29.84,WNW,283,3.0,4.0,80,0.02,,,0.11,weatherlink.com 1.10,2013-11-10 22:36:00,
2013-11-10 17:51:00,47.7,41.0,29.85,West,271,2.0,14.0,78,0.01,,,0.11,weatherlink.com 1.10,2013-11-10 22:51:00,
2013-11-10 18:06:00,48.3,40.0,29.85,NW,311,5.0,15.0,74,0.00,,,0.11,weatherlink.com 1.10,2013-11-10 23:06:00,
2013-11-10 18:21:00,48.6,40.0,29.85,NW,323,5.0,13.0,72,0.00,,,0.11,weatherlink.com 1.10,2013-11-10 23:21:00,
2013-11-10 18:36:00,48.8,40.0,29.86,WNW,293,4.0,19.0,71,0.00,,,0.11,weatherlink.com 1.10,2013-11-10 23:36:00,
2013-11-10 18:51:00,48.7,40.0,29.87,NW,314,6.0,17.0,71,0.00,,,0.11,weatherlink.com 1.10,2013-11-10 23:51:00,
2013-11-10 19:06:00,48.6,40.0,29.87,WSW,248,8.0,21.0,73,0.00,,,0.11,weatherlink.com 1.10,2013-11-11 00:06:00,
2013-11-10 19:21:00,48.5,39.0,29.87,WNW,298,9.0,19.0,71,0.00,,,0.11,weatherlink.com 1.10,2013-11-11 00:21:00,
2013-11-10 19:36:00,48.7,39.0,29.87,WNW,282,13.0,16.0,70,0.00,,,0.11,weatherlink.com 1.10,2013-11-11 00:36:00,
2013-11-10 19:51:00,48.8,39.0,29.88,West,279,8.0,14.0,70,0.00,,,0.11,weatherlink.com 1.10,2013-11-11 00:51:00,
2013-11-10 20:06:00,48.8,39.0,29.89,West,278,9.0,19.0,70,0.00,,,0.11,weatherlink.com 1.10,2013-11-11 01:06:00,
2013-11-10 20:21:00,48.7,39.0,29.89,SW,233,9.0,18.0,69,0.00,,,0.11,weatherlink.com 1.10,2013-11-11 01:21:00,
2013-11-10 20:36:00,48.5,38.0,29.89,WNW,299,6.0,18.0,68,0.00,,,0.11,weatherlink.com 1.10,2013-11-11 01:36:00,
2013-11-10 20:51:00,48.5,38.0,29.89,West,259,8.0,18.0,67,0.00,,,0.11,weatherlink.com 1.10,2013-11-11 01:51:00,
2013-11-10 21:06:00,48.4,38.0,29.90,WSW,255,6.0,18.0,67,0.00,,,0.11,weatherlink.com 1.10,2013-11-11 02:06:00,
2013-11-10 21:21:00,48.3,39.0,29.90,WSW,245,8.0,22.0,69,0.00,,,0.11,weatherlink.com 1.10,2013-11-11 02:21:00,
2013-11-10 21:36:00,48.6,37.0,29.90,NW,315,5.0,20.0,64,0.00,,,0.11,weatherlink.com 1.10,2013-11-11 02:36:00,
2013-11-10 21:51:00,48.6,37.0,29.90,NNW,335,7.0,22.0,64,0.00,,,0.11,weatherlink.com 1.10,2013-11-11 02:51:00,
2013-11-10 22:07:00,48.5,38.0,29.90,WSW,250,9.0,27.0,66,0.00,,,0.11,weatherlink.com 1.10,2013-11-11 03:07:00,
2013-11-10 22:21:00,48.3,37.0,29.90,WSW,244,7.0,17.0,66,0.00,,,0.11,weatherlink.com 1.10,2013-11-11 03:21:00,
2013-11-10 22:36:00,48.3,37.0,29.90,West,274,7.0,16.0,65,0.00,,,0.11,weatherlink.com 1.10,2013-11-11 03:36:00,
2013-11-10 22:51:00,48.4,37.0,29.91,NW,309,7.0,14.0,65,0.00,,,0.11,weatherlink.com 1.10,2013-11-11 03:51:00,
2013-11-10 23:06:00,48.4,37.0,29.91,WNW,286,6.0,16.0,64,0.00,,,0.11,weatherlink.com 1.10,2013-11-11 04:06:00,
2013-11-10 23:21:00,48.5,36.0,29.91,SW,217,5.0,16.0,63,0.00,,,0.11,weatherlink.com 1.10,2013-11-11 04:21:00,
2013-11-10 23:36:00,48.7,37.0,29.91,NNW,327,11.0,19.0,64,0.00,,,0.11,weatherlink.com 1.10,2013-11-11 04:36:00,
2013-11-10 23:52:00,48.1,36.0,29.92,West,261,8.0,20.0,63,0.00,,,0.11,weatherlink.com 1.10,2013-11-11 04:52:00,